createdAt,value
2024-04-24T00:02:20.321Z,61.85
2024-04-24T00:04:47.784Z,61.97
2024-04-24T00:07:15.855Z,61.93
2024-04-24T00:09:42.757Z,62.13
2024-04-24T00:12:10.398Z,62.04
2024-04-24T00:14:37.606Z,61.98
2024-04-24T00:17:05.339Z,62.02
2024-04-24T00:19:32.197Z,62.07
2024-04-24T00:21:59.137Z,61.98
2024-04-24T00:24:26.243Z,61.95
2024-04-24T00:26:53.286Z,61.89
2024-04-24T00:29:20.332Z,62.11
2024-04-24T00:31:47.300Z,61.93
2024-04-24T00:34:14.388Z,62.04
2024-04-24T00:36:41.376Z,61.77
2024-04-24T00:39:08.382Z,61.91
2024-04-24T00:41:35.237Z,62.08
2024-04-24T00:44:02.390Z,61.92
2024-04-24T00:46:33.628Z,62.05
2024-04-24T00:49:02.132Z,62.11
2024-04-24T00:51:31.426Z,62.12
2024-04-24T00:53:58.488Z,62.21
2024-04-24T00:56:25.558Z,62.27
2024-04-24T00:58:53.811Z,62.18
2024-04-24T01:01:22.515Z,62.18
2024-04-24T01:03:50.570Z,62.34
2024-04-24T01:06:17.515Z,62.36
2024-04-24T01:08:44.826Z,62.31
2024-04-24T01:11:12.005Z,62.27
2024-04-24T01:13:38.950Z,62.44
2024-04-24T01:16:10.988Z,62.55
2024-04-24T01:18:42.212Z,62.58
2024-04-24T01:21:10.938Z,62.48
2024-04-24T01:23:44.418Z,62.61
2024-04-24T01:26:15.764Z,62.84
2024-04-24T01:28:43.025Z,62.71
2024-04-24T01:31:10.183Z,63.08
2024-04-24T01:33:37.215Z,62.80
2024-04-24T01:36:04.596Z,62.81
2024-04-24T01:38:31.468Z,63.08
2024-04-24T01:40:59.572Z,62.93
2024-04-24T01:43:26.434Z,62.72
2024-04-24T01:45:53.388Z,62.96
2024-04-24T01:48:20.354Z,63.01
2024-04-24T01:50:47.589Z,63.02
2024-04-24T01:53:14.792Z,63.14
2024-04-24T01:55:41.942Z,63.09
2024-04-24T01:58:09.287Z,63.48
2024-04-24T02:00:36.304Z,63.17
2024-04-24T02:03:03.441Z,63.42
2024-04-24T02:05:30.567Z,63.54
2024-04-24T02:07:57.592Z,63.49
2024-04-24T02:10:24.689Z,63.75
2024-04-24T02:12:51.668Z,64.00
2024-04-24T02:15:18.813Z,64.10
2024-04-24T02:17:46.074Z,64.22
2024-04-24T02:20:13.670Z,64.17
2024-04-24T02:22:40.799Z,64.19
2024-04-24T02:25:26.378Z,64.49
2024-04-24T02:27:53.227Z,64.39
2024-04-24T02:30:20.222Z,64.57
2024-04-24T02:32:47.619Z,64.67
2024-04-24T02:35:14.828Z,64.73
2024-04-24T02:37:42.166Z,64.75
2024-04-24T02:40:10.865Z,64.89
2024-04-24T02:42:38.215Z,64.88
2024-04-24T02:45:05.479Z,64.98
2024-04-24T02:47:32.721Z,64.98
2024-04-24T02:49:59.744Z,64.91
2024-04-24T02:52:26.633Z,65.01
2024-04-24T02:54:53.859Z,65.06
2024-04-24T02:57:20.985Z,65.10
2024-04-24T02:59:47.966Z,65.40
2024-04-24T03:02:14.771Z,65.41
2024-04-24T03:04:41.858Z,65.36
2024-04-24T03:07:09.271Z,65.41
2024-04-24T03:09:36.627Z,65.39
2024-04-24T03:12:03.564Z,65.70
2024-04-24T03:14:30.577Z,65.44
2024-04-24T03:16:57.833Z,65.45
2024-04-24T03:19:24.832Z,65.59
2024-04-24T03:21:51.886Z,65.71
2024-04-24T03:24:18.975Z,65.66
2024-04-24T03:26:45.922Z,65.69
2024-04-24T03:29:12.834Z,65.91
2024-04-24T03:31:39.783Z,65.96
2024-04-24T03:34:06.645Z,65.98
2024-04-24T03:36:34.007Z,66.03
2024-04-24T03:39:01.238Z,66.14
2024-04-24T03:41:28.218Z,66.14
2024-04-24T03:43:54.994Z,66.16
2024-04-24T03:46:21.779Z,66.19
2024-04-24T03:48:48.539Z,66.43
2024-04-24T03:51:15.301Z,66.35
2024-04-24T03:53:42.530Z,66.26
2024-04-24T03:56:10.064Z,66.49
2024-04-24T03:58:37.220Z,66.52
2024-04-24T04:01:04.415Z,66.43
2024-04-24T04:03:31.847Z,66.55
2024-04-24T04:05:58.992Z,66.52
2024-04-24T04:08:25.936Z,66.53
2024-04-24T04:10:53.245Z,66.71
2024-04-24T04:13:20.378Z,66.65
2024-04-24T04:15:47.132Z,66.74
2024-04-24T04:18:14.022Z,66.75
2024-04-24T04:20:41.029Z,66.81
2024-04-24T04:23:08.210Z,66.71
2024-04-24T04:25:35.384Z,66.63
2024-04-24T04:28:02.747Z,66.64
2024-04-24T04:30:29.663Z,66.76
2024-04-24T04:32:56.848Z,66.64
2024-04-24T04:35:24.023Z,66.50
2024-04-24T04:37:51.012Z,66.66
2024-04-24T04:40:18.081Z,66.66
2024-04-24T04:42:45.425Z,66.62
2024-04-24T04:45:13.003Z,66.56
2024-04-24T04:47:40.012Z,66.57
2024-04-24T04:50:08.283Z,66.40
2024-04-24T04:52:35.249Z,66.42
2024-04-24T04:55:03.519Z,66.52
2024-04-24T04:57:30.677Z,66.40
2024-04-24T04:59:57.820Z,66.46
2024-04-24T05:02:25.081Z,66.47
2024-04-24T05:04:52.263Z,66.51
2024-04-24T05:07:19.023Z,66.48
2024-04-24T05:09:46.009Z,66.61
2024-04-24T05:12:13.108Z,66.38
2024-04-24T05:14:40.213Z,66.47
2024-04-24T05:17:09.489Z,66.58
2024-04-24T05:19:36.350Z,66.32
2024-04-24T05:22:03.306Z,66.37
2024-04-24T05:24:30.288Z,66.27
2024-04-24T05:27:15.031Z,66.19
2024-04-24T05:29:41.849Z,66.20
2024-04-24T05:32:08.687Z,66.19
2024-04-24T05:34:35.386Z,66.20
2024-04-24T05:37:02.227Z,66.09
2024-04-24T05:39:29.123Z,66.07
2024-04-24T05:41:56.177Z,65.98
2024-04-24T05:44:24.833Z,65.76
2024-04-24T05:46:51.803Z,65.81
2024-04-24T05:49:18.866Z,65.89
2024-04-24T05:51:45.567Z,65.73
2024-04-24T05:54:12.223Z,65.66
2024-04-24T05:56:39.007Z,65.95
2024-04-24T05:59:05.812Z,65.80
2024-04-24T06:01:32.584Z,65.89
2024-04-24T06:03:59.333Z,66.41
2024-04-24T06:06:26.111Z,66.10
2024-04-24T06:08:52.817Z,65.99
2024-04-24T06:11:19.968Z,66.00
2024-04-24T06:13:47.025Z,65.78
2024-04-24T06:16:14.539Z,65.68
2024-04-24T06:18:41.861Z,65.58
2024-04-24T06:21:09.319Z,66.19
2024-04-24T06:23:36.434Z,65.50
2024-04-24T06:26:03.567Z,65.20
2024-04-24T06:28:30.646Z,65.05
2024-04-24T06:30:57.738Z,65.08
2024-04-24T06:33:24.727Z,64.98
2024-04-24T06:35:51.619Z,64.79
2024-04-24T06:38:20.521Z,64.88
2024-04-24T06:40:47.514Z,64.93
2024-04-24T06:43:14.270Z,64.86
2024-04-24T06:45:41.237Z,64.95
2024-04-24T06:48:09.393Z,64.72
2024-04-24T06:50:36.756Z,64.65
2024-04-24T06:53:03.961Z,64.71
2024-04-24T06:55:32.218Z,64.48
2024-04-24T06:58:00.833Z,64.12
2024-04-24T07:00:31.229Z,64.52
2024-04-24T07:02:58.304Z,64.61
2024-04-24T07:05:25.276Z,64.46
2024-04-24T07:07:52.279Z,64.40
2024-04-24T07:10:19.323Z,64.45
2024-04-24T07:12:48.915Z,64.39
2024-04-24T07:15:16.975Z,64.17
2024-04-24T07:17:44.194Z,64.04
2024-04-24T07:20:12.096Z,64.08
2024-04-24T07:22:39.343Z,64.01
2024-04-24T07:25:07.249Z,64.05
2024-04-24T07:27:34.803Z,63.97
2024-04-24T07:30:03.390Z,63.69
2024-04-24T07:32:30.653Z,63.65
2024-04-24T07:34:57.790Z,63.21
2024-04-24T07:37:25.499Z,63.03
2024-04-24T07:39:52.702Z,62.75
2024-04-24T07:42:19.644Z,62.44
2024-04-24T07:44:46.466Z,62.26
2024-04-24T07:47:13.910Z,62.07
2024-04-24T07:49:41.587Z,61.55
2024-04-24T07:52:08.870Z,61.16
2024-04-24T07:54:36.787Z,60.55
2024-04-24T07:57:03.941Z,59.50
2024-04-24T07:59:31.105Z,58.72
2024-04-24T08:01:58.678Z,57.66
2024-04-24T08:04:25.922Z,57.06
2024-04-24T08:06:52.963Z,56.08
2024-04-24T08:09:20.262Z,54.70
2024-04-24T08:11:47.569Z,54.20
2024-04-24T08:14:15.695Z,53.02
2024-04-24T08:16:42.666Z,53.14
2024-04-24T08:19:10.119Z,52.43
2024-04-24T08:21:37.406Z,52.32
2024-04-24T08:24:04.320Z,52.63
2024-04-24T08:26:31.520Z,53.09
2024-04-24T08:28:58.358Z,53.21
2024-04-24T08:31:25.431Z,52.95
2024-04-24T08:33:52.548Z,52.85
2024-04-24T08:36:19.566Z,53.12
2024-04-24T08:38:46.778Z,52.97
2024-04-24T08:41:14.453Z,52.79
2024-04-24T08:43:42.479Z,52.86
2024-04-24T08:46:11.754Z,53.01
2024-04-24T08:48:41.176Z,53.26
2024-04-24T08:51:09.726Z,53.23
2024-04-24T08:53:38.268Z,53.40
2024-04-24T08:56:09.544Z,52.95
2024-04-24T08:58:39.753Z,52.59
2024-04-24T09:01:10.391Z,52.41
2024-04-24T09:03:41.775Z,52.28
2024-04-24T09:06:11.472Z,52.23
2024-04-24T09:08:39.469Z,51.68
2024-04-24T09:11:07.973Z,51.15
2024-04-24T09:13:36.269Z,50.60
2024-04-24T09:16:05.954Z,50.28
2024-04-24T09:18:32.890Z,49.75
2024-04-24T09:21:01.068Z,48.46
2024-04-24T09:23:27.983Z,46.62
2024-04-24T09:25:54.791Z,45.50
2024-04-24T09:28:21.488Z,44.38
2024-04-24T09:30:52.715Z,43.70
2024-04-24T09:33:19.710Z,42.67
2024-04-24T09:35:47.242Z,41.29
2024-04-24T09:38:15.267Z,41.22
2024-04-24T09:40:42.178Z,41.04
2024-04-24T09:43:09.300Z,41.58
2024-04-24T09:45:36.332Z,41.74
2024-04-24T09:48:05.122Z,41.63
2024-04-24T09:50:35.877Z,42.24
2024-04-24T09:53:03.476Z,42.34
2024-04-24T09:55:39.468Z,42.54
2024-04-24T09:58:09.232Z,42.99
2024-04-24T10:00:37.849Z,43.58
2024-04-24T10:03:11.984Z,44.12
2024-04-24T10:05:47.824Z,44.39
2024-04-24T10:08:30.954Z,44.58
2024-04-24T10:10:59.958Z,45.05
2024-04-24T10:13:34.331Z,45.49
2024-04-24T10:16:03.241Z,45.75
2024-04-24T10:18:31.040Z,46.04
2024-04-24T10:20:59.625Z,46.72
2024-04-24T10:23:29.008Z,46.96
2024-04-24T10:25:57.376Z,47.04
2024-04-24T10:28:25.881Z,47.51
2024-04-24T10:30:54.295Z,48.08
2024-04-24T10:33:22.163Z,48.19
2024-04-24T10:35:49.824Z,48.67
2024-04-24T10:38:17.536Z,49.08
2024-04-24T10:40:50.496Z,48.98
2024-04-24T10:43:18.952Z,49.08
2024-04-24T10:45:46.086Z,49.14
2024-04-24T10:48:14.480Z,49.19
2024-04-24T10:50:42.803Z,49.33
2024-04-24T10:53:14.343Z,49.49
2024-04-24T10:55:51.542Z,49.72
2024-04-24T10:58:23.926Z,49.61
2024-04-24T11:00:51.126Z,49.50
2024-04-24T11:03:18.458Z,49.59
2024-04-24T11:05:45.674Z,49.65
2024-04-24T11:08:20.868Z,50.10
2024-04-24T11:10:52.691Z,49.99
2024-04-24T11:13:19.867Z,50.03
2024-04-24T11:15:54.542Z,50.20
2024-04-24T11:18:28.359Z,50.29
2024-04-24T11:20:55.633Z,50.51
2024-04-24T11:23:22.598Z,50.84
2024-04-24T11:25:58.906Z,51.11
2024-04-24T11:28:27.244Z,51.50
2024-04-24T11:30:54.338Z,51.40
2024-04-24T11:33:23.071Z,51.53
2024-04-24T11:35:50.375Z,51.63
2024-04-24T11:38:17.259Z,51.59
2024-04-24T11:40:45.493Z,51.76
2024-04-24T11:43:12.525Z,52.07
2024-04-24T11:45:40.329Z,52.35
2024-04-24T11:48:09.113Z,52.61
2024-04-24T11:50:37.056Z,52.75
2024-04-24T11:53:04.978Z,53.12
2024-04-24T11:55:35.320Z,53.13
2024-04-24T11:58:09.963Z,53.18
2024-04-24T12:00:42.541Z,53.17
2024-04-24T12:03:09.870Z,53.34
2024-04-24T12:05:37.241Z,53.78
2024-04-24T12:08:04.570Z,53.85
2024-04-24T12:10:31.878Z,53.68
2024-04-24T12:12:59.120Z,53.75
2024-04-24T12:15:26.375Z,53.86
2024-04-24T12:17:53.445Z,54.12
2024-04-24T12:20:20.508Z,54.52
2024-04-24T12:22:47.286Z,54.69
2024-04-24T12:25:14.095Z,54.81
2024-04-24T12:27:41.164Z,54.81
2024-04-24T12:30:09.742Z,55.01
2024-04-24T12:32:38.028Z,55.12
2024-04-24T12:35:05.519Z,55.31
2024-04-24T12:37:34.780Z,55.65
2024-04-24T12:40:03.085Z,55.84
2024-04-24T12:42:30.202Z,56.10
2024-04-24T12:44:57.131Z,56.38
2024-04-24T12:47:24.275Z,56.40
2024-04-24T12:49:52.695Z,56.60
2024-04-24T12:52:19.897Z,56.68
2024-04-24T12:54:46.739Z,56.74
2024-04-24T12:57:13.874Z,56.81
2024-04-24T12:59:41.056Z,57.01
2024-04-24T13:02:08.297Z,57.12
2024-04-24T13:04:35.368Z,57.51
2024-04-24T13:07:02.579Z,57.84
2024-04-24T13:09:29.522Z,57.93
2024-04-24T13:11:56.569Z,58.02
2024-04-24T13:14:23.905Z,58.38
2024-04-24T13:16:51.752Z,58.70
2024-04-24T13:19:19.200Z,59.02
2024-04-24T13:21:46.688Z,59.22
2024-04-24T13:24:17.438Z,59.43
2024-04-24T13:26:47.678Z,59.65
2024-04-24T13:29:14.955Z,59.89
2024-04-24T13:31:42.243Z,59.98
2024-04-24T13:34:09.324Z,59.88
2024-04-24T13:36:36.281Z,60.06
2024-04-24T13:39:03.914Z,60.38
2024-04-24T13:41:36.325Z,60.41
2024-04-24T13:44:05.617Z,60.75
2024-04-24T13:46:32.987Z,60.80
2024-04-24T13:48:59.886Z,60.90
2024-04-24T13:51:26.780Z,61.06
2024-04-24T13:53:53.621Z,61.38
2024-04-24T13:56:20.380Z,61.31
2024-04-24T13:58:47.217Z,61.24
2024-04-24T16:16:38.032Z,62.51
2024-04-24T16:19:06.383Z,62.46
2024-04-24T16:21:33.283Z,62.56
2024-04-24T16:23:59.969Z,62.83
2024-04-24T16:26:26.828Z,63.01
2024-04-24T16:28:54.071Z,63.29
2024-04-24T16:31:20.806Z,63.42
2024-04-24T16:33:48.186Z,63.58
2024-04-24T16:36:15.090Z,63.72
2024-04-24T16:38:42.072Z,63.93
2024-04-24T16:41:18.165Z,63.98
2024-04-24T16:43:49.549Z,64.14
2024-04-24T16:46:18.352Z,64.26
2024-04-24T16:48:45.161Z,64.42
2024-04-24T16:51:12.051Z,64.65
2024-04-24T16:53:38.800Z,64.76
2024-04-24T16:56:07.213Z,64.90
2024-04-24T16:58:33.977Z,64.97
2024-04-24T17:01:01.046Z,64.84
2024-04-24T17:03:28.025Z,65.08
2024-04-24T17:05:55.414Z,65.11
2024-04-24T17:08:22.095Z,65.20
2024-04-24T17:10:48.962Z,65.38
2024-04-24T17:13:15.752Z,65.46
2024-04-24T17:15:43.084Z,65.52
2024-04-24T17:18:10.149Z,65.63
2024-04-24T17:20:37.063Z,65.89
2024-04-24T17:23:03.955Z,66.04
2024-04-24T17:25:30.716Z,66.12
2024-04-24T17:27:57.702Z,66.16
2024-04-24T17:30:24.406Z,66.32
2024-04-24T17:32:51.915Z,66.46
2024-04-24T17:35:19.124Z,66.67
2024-04-24T17:37:45.900Z,66.87
2024-04-24T17:40:13.310Z,66.93
2024-04-24T17:42:40.904Z,67.03
2024-04-24T17:45:09.011Z,67.20
2024-04-24T17:47:36.103Z,67.39
2024-04-24T17:50:04.097Z,67.52
2024-04-24T17:52:32.539Z,67.61
2024-04-24T17:54:59.308Z,67.67
2024-04-24T17:57:27.042Z,67.74
2024-04-24T17:59:53.884Z,67.77
2024-04-24T18:02:20.682Z,68.00
2024-04-24T18:04:47.431Z,68.01
2024-04-24T18:07:14.169Z,68.12
2024-04-24T18:09:40.860Z,68.23
2024-04-24T18:12:09.101Z,68.39
2024-04-24T18:14:35.924Z,68.38
2024-04-24T18:17:03.135Z,68.54
2024-04-24T18:19:29.933Z,68.61
2024-04-24T18:21:56.656Z,68.60
2024-04-24T18:24:25.250Z,68.56
2024-04-24T18:26:51.989Z,68.54
2024-04-24T18:29:18.954Z,68.71
2024-04-24T18:31:46.308Z,68.77
2024-04-24T18:34:15.484Z,68.95
2024-04-24T18:36:43.005Z,69.14
2024-04-24T18:39:10.023Z,69.18
2024-04-24T18:41:36.940Z,69.20
2024-04-24T18:44:04.175Z,69.26
2024-04-24T18:46:31.199Z,69.42
2024-04-24T18:48:58.518Z,69.42
2024-04-24T18:51:25.561Z,69.53
2024-04-24T18:53:52.402Z,69.66
2024-04-24T18:56:19.320Z,69.60
2024-04-24T18:58:46.188Z,69.59
2024-04-24T19:01:13.050Z,69.74
2024-04-24T19:03:39.998Z,69.92
2024-04-24T19:06:07.690Z,70.13
2024-04-24T19:08:34.666Z,69.99
2024-04-24T19:11:01.734Z,69.97
2024-04-24T19:13:28.972Z,69.97
2024-04-24T19:15:55.693Z,69.88
2024-04-24T19:18:22.805Z,69.91
2024-04-24T19:20:49.746Z,69.89
2024-04-24T19:23:16.649Z,69.82
2024-04-24T19:25:43.335Z,69.75
2024-04-24T19:28:10.764Z,69.76
2024-04-24T19:30:37.522Z,69.66
2024-04-24T19:33:04.540Z,69.81
2024-04-24T19:35:31.522Z,69.92
2024-04-24T19:37:59.307Z,69.90
2024-04-24T19:40:29.520Z,69.96
2024-04-24T19:42:56.352Z,69.95
2024-04-24T19:45:23.691Z,70.00
2024-04-24T19:47:50.522Z,70.01
2024-04-24T19:50:18.320Z,70.01
2024-04-24T19:52:45.117Z,69.97
2024-04-24T19:55:12.803Z,70.02
2024-04-24T19:57:39.794Z,70.17
2024-04-24T20:00:08.000Z,70.27
2024-04-24T20:02:37.199Z,70.28
2024-04-24T20:05:04.566Z,70.14
2024-04-24T20:07:32.853Z,70.25
2024-04-24T20:09:59.653Z,70.40
2024-04-24T20:12:26.385Z,70.46
2024-04-24T20:14:53.567Z,70.37
2024-04-24T20:17:22.738Z,70.32
2024-04-24T20:20:03.814Z,70.23
2024-04-24T20:22:31.293Z,70.27
2024-04-24T20:24:57.994Z,70.33
2024-04-24T20:27:24.800Z,70.31
2024-04-24T20:29:51.681Z,70.36
2024-04-24T20:32:18.401Z,70.40
2024-04-24T20:34:45.247Z,70.47
2024-04-24T20:37:12.052Z,70.56
2024-04-24T20:39:40.476Z,70.56
2024-04-24T20:42:10.776Z,70.64
2024-04-24T20:44:38.417Z,70.61
2024-04-24T20:47:05.316Z,70.63
2024-04-24T20:49:32.083Z,70.59
2024-04-24T20:51:58.767Z,70.48
2024-04-24T20:54:25.721Z,70.66
2024-04-24T20:56:52.476Z,70.70
2024-04-24T20:59:19.322Z,70.59
2024-04-24T21:01:46.011Z,70.52
2024-04-24T21:04:12.694Z,70.61
2024-04-24T21:06:39.853Z,70.55
2024-04-24T21:09:08.382Z,70.57
2024-04-24T21:11:35.169Z,70.62
2024-04-24T21:14:02.376Z,70.68
2024-04-24T21:16:29.119Z,70.62
2024-04-24T21:18:56.053Z,70.49
2024-04-24T21:21:23.371Z,70.57
2024-04-24T21:23:51.872Z,70.62
2024-04-24T21:26:19.065Z,70.61
2024-04-24T21:28:46.072Z,70.52
2024-04-24T21:31:12.866Z,70.65
2024-04-24T21:33:39.590Z,70.59
2024-04-24T21:36:07.143Z,70.52
2024-04-24T21:38:36.052Z,70.53
2024-04-24T21:41:04.961Z,70.43
2024-04-24T21:43:31.795Z,70.62
2024-04-24T21:46:04.735Z,70.80
2024-04-24T21:48:31.485Z,70.58
2024-04-24T21:50:58.135Z,70.59
2024-04-24T21:53:24.887Z,70.62
2024-04-24T21:55:51.672Z,70.54
2024-04-24T21:58:18.658Z,70.72
2024-04-24T22:00:45.433Z,70.63
2024-04-24T22:03:12.334Z,70.80
2024-04-24T22:05:39.182Z,70.91
2024-04-24T22:08:06.394Z,70.94
2024-04-24T22:10:33.357Z,70.95
2024-04-24T22:13:02.011Z,71.01
2024-04-24T22:15:31.451Z,71.23
2024-04-24T22:18:01.198Z,71.13
2024-04-24T22:20:28.067Z,71.35
2024-04-24T22:22:55.324Z,71.23
2024-04-24T22:25:23.198Z,71.31
2024-04-24T22:27:49.990Z,71.41
2024-04-24T22:30:17.064Z,71.43
2024-04-24T22:32:44.024Z,71.56
2024-04-24T22:35:11.080Z,71.55
2024-04-24T22:37:37.877Z,71.61
2024-04-24T22:40:05.215Z,71.68
2024-04-24T22:42:32.029Z,71.80
2024-04-24T22:44:58.723Z,71.93
2024-04-24T22:47:25.636Z,72.04
2024-04-24T22:49:52.389Z,72.03
2024-04-24T22:52:19.046Z,72.12
2024-04-24T22:54:46.264Z,72.22
2024-04-24T22:57:12.958Z,72.11
2024-04-24T22:59:39.664Z,72.22
2024-04-24T23:02:06.815Z,72.17
2024-04-24T23:04:33.623Z,72.14
2024-04-24T23:07:00.363Z,72.31
2024-04-24T23:09:27.360Z,72.28
2024-04-24T23:11:54.098Z,72.33
2024-04-24T23:14:25.967Z,72.41
2024-04-24T23:16:52.724Z,72.44
2024-04-24T23:19:20.931Z,72.51
2024-04-24T23:21:47.680Z,72.62
2024-04-24T23:24:14.618Z,72.89
2024-04-24T23:26:45.934Z,72.79
2024-04-24T23:29:13.323Z,72.84
2024-04-24T23:31:40.234Z,72.72
2024-04-24T23:34:07.312Z,73.08
2024-04-24T23:36:33.941Z,73.14
2024-04-24T23:39:00.690Z,73.11
2024-04-24T23:41:27.462Z,73.14
2024-04-24T23:43:54.537Z,73.16
2024-04-24T23:46:21.565Z,73.10
2024-04-24T23:48:49.071Z,73.18
2024-04-24T23:51:15.787Z,73.36
2024-04-24T23:53:42.562Z,73.22
2024-04-24T23:56:10.497Z,73.23
2024-04-24T23:58:37.236Z,73.34
